sensor_id;sensor_type;location;lat;lon;timestamp;P1;durP1;ratioP1;P2;durP2;ratioP2
23280;SDS011;11809;56.390;-3.266;2023-10-13T00:02:26;1.10;;;0.80;;
23280;SDS011;11809;56.390;-3.266;2023-10-13T00:04:56;1.38;;;0.70;;
23280;SDS011;11809;56.390;-3.266;2023-10-13T00:07:27;2.07;;;0.97;;
23280;SDS011;11809;56.390;-3.266;2023-10-13T00:09:57;1.50;;;0.60;;
23280;SDS011;11809;56.390;-3.266;2023-10-13T00:12:31;2.05;;;0.60;;
23280;SDS011;11809;56.390;-3.266;2023-10-13T00:15:07;1.70;;;0.70;;
23280;SDS011;11809;56.390;-3.266;2023-10-13T00:17:40;1.92;;;0.77;;
23280;SDS011;11809;56.390;-3.266;2023-10-13T00:20:11;1.13;;;0.77;;
23280;SDS011;11809;56.390;-3.266;2023-10-13T00:22:54;1.48;;;0.40;;
23280;SDS011;11809;56.390;-3.266;2023-10-13T00:25:26;1.83;;;0.70;;
23280;SDS011;11809;56.390;-3.266;2023-10-13T00:28:06;1.05;;;0.75;;
23280;SDS011;11809;56.390;-3.266;2023-10-13T00:30:40;2.33;;;0.90;;
23280;SDS011;11809;56.390;-3.266;2023-10-13T00:33:17;1.15;;;0.65;;
23280;SDS011;11809;56.390;-3.266;2023-10-13T00:35:49;1.35;;;0.70;;
23280;SDS011;11809;56.390;-3.266;2023-10-13T00:38:24;1.50;;;0.70;;
23280;SDS011;11809;56.390;-3.266;2023-10-13T00:40:55;1.42;;;0.60;;
23280;SDS011;11809;56.390;-3.266;2023-10-13T00:43:30;0.80;;;0.68;;
23280;SDS011;11809;56.390;-3.266;2023-10-13T00:46:10;0.63;;;0.60;;
23280;SDS011;11809;56.390;-3.266;2023-10-13T00:48:41;1.70;;;0.80;;
23280;SDS011;11809;56.390;-3.266;2023-10-13T00:51:19;0.75;;;0.60;;
23280;SDS011;11809;56.390;-3.266;2023-10-13T00:54:00;2.37;;;0.80;;
23280;SDS011;11809;56.390;-3.266;2023-10-13T00:56:34;1.08;;;0.68;;
23280;SDS011;11809;56.390;-3.266;2023-10-13T00:59:13;1.35;;;0.68;;
23280;SDS011;11809;56.390;-3.266;2023-10-13T01:01:44;1.00;;;0.63;;
23280;SDS011;11809;56.390;-3.266;2023-10-13T01:04:21;1.25;;;0.60;;
23280;SDS011;11809;56.390;-3.266;2023-10-13T01:06:50;1.48;;;0.65;;
23280;SDS011;11809;56.390;-3.266;2023-10-13T01:09:20;0.98;;;0.60;;
23280;SDS011;11809;56.390;-3.266;2023-10-13T01:11:51;1.00;;;0.70;;
23280;SDS011;11809;56.390;-3.266;2023-10-13T01:14:22;1.73;;;0.65;;
23280;SDS011;11809;56.390;-3.266;2023-10-13T01:16:58;1.10;;;0.60;;
23280;SDS011;11809;56.390;-3.266;2023-10-13T01:19:28;0.77;;;0.52;;
23280;SDS011;11809;56.390;-3.266;2023-10-13T01:21:58;0.82;;;0.60;;
23280;SDS011;11809;56.390;-3.266;2023-10-13T01:24:32;0.63;;;0.50;;
23280;SDS011;11809;56.390;-3.266;2023-10-13T01:27:04;1.90;;;0.68;;
23280;SDS011;11809;56.390;-3.266;2023-10-13T01:29:41;0.60;;;0.50;;
23280;SDS011;11809;56.390;-3.266;2023-10-13T01:32:15;1.00;;;0.57;;
23280;SDS011;11809;56.390;-3.266;2023-10-13T01:34:46;0.88;;;0.57;;
23280;SDS011;11809;56.390;-3.266;2023-10-13T01:37:15;1.80;;;0.50;;
23280;SDS011;11809;56.390;-3.266;2023-10-13T01:42:19;1.40;;;0.50;;
23280;SDS011;11809;56.390;-3.266;2023-10-13T01:44:49;1.13;;;0.60;;
23280;SDS011;11809;56.390;-3.266;2023-10-13T01:47:24;0.85;;;0.50;;
23280;SDS011;11809;56.390;-3.266;2023-10-13T01:49:54;1.15;;;0.63;;
23280;SDS011;11809;56.390;-3.266;2023-10-13T01:52:33;0.73;;;0.50;;
23280;SDS011;11809;56.390;-3.266;2023-10-13T01:55:04;1.38;;;0.60;;
23280;SDS011;11809;56.390;-3.266;2023-10-13T01:57:38;0.90;;;0.50;;
23280;SDS011;11809;56.390;-3.266;2023-10-13T02:00:08;0.60;;;0.60;;
23280;SDS011;11809;56.390;-3.266;2023-10-13T02:02:45;1.00;;;0.57;;
23280;SDS011;11809;56.390;-3.266;2023-10-13T02:05:17;0.85;;;0.50;;
23280;SDS011;11809;56.390;-3.266;2023-10-13T02:07:45;1.63;;;0.60;;
23280;SDS011;11809;56.390;-3.266;2023-10-13T02:10:18;0.70;;;0.70;;
23280;SDS011;11809;56.390;-3.266;2023-10-13T02:12:51;2.03;;;0.80;;
23280;SDS011;11809;56.390;-3.266;2023-10-13T02:15:22;1.15;;;0.50;;
23280;SDS011;11809;56.390;-3.266;2023-10-13T02:17:53;1.52;;;0.60;;
23280;SDS011;11809;56.390;-3.266;2023-10-13T02:20:22;1.35;;;0.43;;
23280;SDS011;11809;56.390;-3.266;2023-10-13T02:22:57;1.15;;;0.68;;
23280;SDS011;11809;56.390;-3.266;2023-10-13T02:25:28;1.13;;;0.50;;
23280;SDS011;11809;56.390;-3.266;2023-10-13T02:28:09;1.13;;;0.50;;
23280;SDS011;11809;56.390;-3.266;2023-10-13T02:30:44;0.70;;;0.50;;
23280;SDS011;11809;56.390;-3.266;2023-10-13T02:33:17;1.00;;;0.90;;
23280;SDS011;11809;56.390;-3.266;2023-10-13T02:35:48;1.40;;;0.60;;
23280;SDS011;11809;56.390;-3.266;2023-10-13T02:38:23;0.73;;;0.40;;
23280;SDS011;11809;56.390;-3.266;2023-10-13T02:41:04;1.10;;;0.50;;
23280;SDS011;11809;56.390;-3.266;2023-10-13T02:43:45;0.80;;;0.50;;
23280;SDS011;11809;56.390;-3.266;2023-10-13T02:46:13;0.93;;;0.40;;
23280;SDS011;11809;56.390;-3.266;2023-10-13T02:48:48;0.90;;;0.52;;
23280;SDS011;11809;56.390;-3.266;2023-10-13T02:51:20;1.48;;;0.50;;
23280;SDS011;11809;56.390;-3.266;2023-10-13T02:53:57;1.95;;;0.60;;
23280;SDS011;11809;56.390;-3.266;2023-10-13T02:56:32;2.13;;;0.45;;
23280;SDS011;11809;56.390;-3.266;2023-10-13T02:59:03;1.27;;;0.55;;
23280;SDS011;11809;56.390;-3.266;2023-10-13T03:01:32;0.73;;;0.47;;
23280;SDS011;11809;56.390;-3.266;2023-10-13T03:06:36;0.75;;;0.40;;
23280;SDS011;11809;56.390;-3.266;2023-10-13T03:09:07;2.05;;;0.50;;
23280;SDS011;11809;56.390;-3.266;2023-10-13T03:11:48;1.83;;;0.50;;
23280;SDS011;11809;56.390;-3.266;2023-10-13T03:14:18;4.50;;;0.82;;
23280;SDS011;11809;56.390;-3.266;2023-10-13T03:16:51;2.58;;;0.45;;
23280;SDS011;11809;56.390;-3.266;2023-10-13T03:19:29;3.13;;;0.63;;
23280;SDS011;11809;56.390;-3.266;2023-10-13T03:22:00;3.40;;;0.52;;
23280;SDS011;11809;56.390;-3.266;2023-10-13T03:24:36;1.10;;;0.55;;
23280;SDS011;11809;56.390;-3.266;2023-10-13T03:27:14;1.90;;;0.50;;
23280;SDS011;11809;56.390;-3.266;2023-10-13T03:29:50;1.52;;;0.60;;
23280;SDS011;11809;56.390;-3.266;2023-10-13T03:32:22;0.98;;;0.50;;
23280;SDS011;11809;56.390;-3.266;2023-10-13T03:34:54;0.55;;;0.45;;
23280;SDS011;11809;56.390;-3.266;2023-10-13T03:37:38;1.17;;;0.50;;
23280;SDS011;11809;56.390;-3.266;2023-10-13T03:40:09;1.95;;;0.52;;
23280;SDS011;11809;56.390;-3.266;2023-10-13T03:43:04;1.25;;;0.60;;
23280;SDS011;11809;56.390;-3.266;2023-10-13T03:45:37;0.70;;;0.60;;
23280;SDS011;11809;56.390;-3.266;2023-10-13T03:48:10;0.77;;;0.40;;
23280;SDS011;11809;56.390;-3.266;2023-10-13T03:50:56;3.22;;;0.63;;
23280;SDS011;11809;56.390;-3.266;2023-10-13T03:53:30;0.70;;;0.40;;
23280;SDS011;11809;56.390;-3.266;2023-10-13T03:56:17;1.10;;;0.50;;
23280;SDS011;11809;56.390;-3.266;2023-10-13T03:59:00;0.80;;;0.60;;
23280;SDS011;11809;56.390;-3.266;2023-10-13T04:01:31;1.13;;;0.60;;
23280;SDS011;11809;56.390;-3.266;2023-10-13T04:04:13;3.45;;;0.60;;
23280;SDS011;11809;56.390;-3.266;2023-10-13T04:07:00;0.80;;;0.60;;
23280;SDS011;11809;56.390;-3.266;2023-10-13T04:10:05;0.75;;;0.50;;
23280;SDS011;11809;56.390;-3.266;2023-10-13T04:12:58;1.02;;;0.60;;
23280;SDS011;11809;56.390;-3.266;2023-10-13T04:15:55;1.40;;;0.50;;
23280;SDS011;11809;56.390;-3.266;2023-10-13T04:18:42;1.48;;;0.75;;
23280;SDS011;11809;56.390;-3.266;2023-10-13T04:21:35;0.50;;;0.50;;
23280;SDS011;11809;56.390;-3.266;2023-10-13T04:24:25;3.10;;;0.60;;
23280;SDS011;11809;56.390;-3.266;2023-10-13T04:27:26;1.50;;;0.60;;
23280;SDS011;11809;56.390;-3.266;2023-10-13T04:30:07;2.72;;;0.77;;
23280;SDS011;11809;56.390;-3.266;2023-10-13T04:32:47;5.47;;;0.98;;
23280;SDS011;11809;56.390;-3.266;2023-10-13T04:35:33;1.98;;;0.68;;
23280;SDS011;11809;56.390;-3.266;2023-10-13T04:38:14;6.40;;;0.77;;
23280;SDS011;11809;56.390;-3.266;2023-10-13T04:40:59;8.35;;;0.70;;
23280;SDS011;11809;56.390;-3.266;2023-10-13T04:43:28;2.13;;;0.65;;
23280;SDS011;11809;56.390;-3.266;2023-10-13T04:46:23;1.80;;;0.52;;
23280;SDS011;11809;56.390;-3.266;2023-10-13T04:49:09;3.50;;;0.70;;
23280;SDS011;11809;56.390;-3.266;2023-10-13T04:51:54;2.05;;;0.70;;
23280;SDS011;11809;56.390;-3.266;2023-10-13T04:54:40;1.77;;;0.40;;
23280;SDS011;11809;56.390;-3.266;2023-10-13T04:57:17;1.70;;;0.60;;
23280;SDS011;11809;56.390;-3.266;2023-10-13T05:00:01;2.22;;;0.60;;
23280;SDS011;11809;56.390;-3.266;2023-10-13T05:02:45;3.17;;;0.68;;
23280;SDS011;11809;56.390;-3.266;2023-10-13T05:05:41;3.97;;;0.60;;
23280;SDS011;11809;56.390;-3.266;2023-10-13T05:08:35;2.38;;;0.82;;
23280;SDS011;11809;56.390;-3.266;2023-10-13T05:11:18;8.57;;;1.08;;
23280;SDS011;11809;56.390;-3.266;2023-10-13T05:14:00;6.57;;;1.27;;
23280;SDS011;11809;56.390;-3.266;2023-10-13T05:16:43;5.35;;;0.70;;
23280;SDS011;11809;56.390;-3.266;2023-10-13T05:19:25;5.07;;;0.85;;
23280;SDS011;11809;56.390;-3.266;2023-10-13T05:22:11;3.22;;;0.75;;
23280;SDS011;11809;56.390;-3.266;2023-10-13T05:24:53;4.40;;;0.88;;
23280;SDS011;11809;56.390;-3.266;2023-10-13T05:27:36;3.45;;;0.80;;
23280;SDS011;11809;56.390;-3.266;2023-10-13T05:30:19;7.25;;;1.00;;
23280;SDS011;11809;56.390;-3.266;2023-10-13T05:33:02;6.13;;;0.98;;
23280;SDS011;11809;56.390;-3.266;2023-10-13T05:35:45;7.60;;;1.08;;
23280;SDS011;11809;56.390;-3.266;2023-10-13T05:38:33;11.80;;;1.30;;
23280;SDS011;11809;56.390;-3.266;2023-10-13T05:41:15;10.10;;;1.35;;
23280;SDS011;11809;56.390;-3.266;2023-10-13T05:43:58;8.35;;;1.13;;
23280;SDS011;11809;56.390;-3.266;2023-10-13T05:46:41;13.18;;;1.15;;
23280;SDS011;11809;56.390;-3.266;2023-10-13T05:49:23;5.15;;;0.90;;
23280;SDS011;11809;56.390;-3.266;2023-10-13T05:52:09;3.08;;;0.80;;
23280;SDS011;11809;56.390;-3.266;2023-10-13T05:55:11;4.82;;;0.90;;
23280;SDS011;11809;56.390;-3.266;2023-10-13T05:57:54;6.25;;;0.70;;
23280;SDS011;11809;56.390;-3.266;2023-10-13T06:00:41;4.03;;;0.70;;
23280;SDS011;11809;56.390;-3.266;2023-10-13T06:03:24;3.85;;;0.93;;
23280;SDS011;11809;56.390;-3.266;2023-10-13T06:06:07;8.27;;;1.00;;
23280;SDS011;11809;56.390;-3.266;2023-10-13T06:08:49;15.60;;;1.77;;
23280;SDS011;11809;56.390;-3.266;2023-10-13T06:11:35;26.42;;;1.95;;
23280;SDS011;11809;56.390;-3.266;2023-10-13T06:14:17;18.20;;;2.08;;
23280;SDS011;11809;56.390;-3.266;2023-10-13T06:17:00;24.08;;;1.83;;
23280;SDS011;11809;56.390;-3.266;2023-10-13T06:19:43;18.98;;;1.38;;
23280;SDS011;11809;56.390;-3.266;2023-10-13T06:22:25;16.58;;;1.45;;
23280;SDS011;11809;56.390;-3.266;2023-10-13T06:25:20;8.68;;;1.02;;
23280;SDS011;11809;56.390;-3.266;2023-10-13T06:28:05;7.25;;;1.05;;
23280;SDS011;11809;56.390;-3.266;2023-10-13T06:30:56;10.65;;;1.20;;
23280;SDS011;11809;56.390;-3.266;2023-10-13T06:33:28;5.47;;;1.08;;
23280;SDS011;11809;56.390;-3.266;2023-10-13T06:36:01;11.20;;;1.63;;
23280;SDS011;11809;56.390;-3.266;2023-10-13T06:38:36;10.63;;;1.90;;
23280;SDS011;11809;56.390;-3.266;2023-10-13T06:41:08;8.50;;;1.23;;
23280;SDS011;11809;56.390;-3.266;2023-10-13T06:43:49;11.57;;;1.65;;
23280;SDS011;11809;56.390;-3.266;2023-10-13T06:46:27;11.10;;;1.48;;
23280;SDS011;11809;56.390;-3.266;2023-10-13T06:49:01;8.40;;;1.75;;
23280;SDS011;11809;56.390;-3.266;2023-10-13T06:51:31;8.48;;;1.55;;
23280;SDS011;11809;56.390;-3.266;2023-10-13T06:54:05;9.35;;;1.23;;
23280;SDS011;11809;56.390;-3.266;2023-10-13T06:56:47;12.85;;;1.30;;
23280;SDS011;11809;56.390;-3.266;2023-10-13T06:59:22;17.95;;;1.48;;
23280;SDS011;11809;56.390;-3.266;2023-10-13T07:01:54;23.75;;;2.38;;
23280;SDS011;11809;56.390;-3.266;2023-10-13T07:04:50;8.50;;;1.23;;
23280;SDS011;11809;56.390;-3.266;2023-10-13T07:07:30;8.80;;;1.20;;
23280;SDS011;11809;56.390;-3.266;2023-10-13T07:10:03;4.22;;;1.08;;
23280;SDS011;11809;56.390;-3.266;2023-10-13T07:12:38;4.53;;;0.90;;
23280;SDS011;11809;56.390;-3.266;2023-10-13T07:15:13;7.80;;;1.00;;
23280;SDS011;11809;56.390;-3.266;2023-10-13T07:17:54;5.22;;;0.90;;
23280;SDS011;11809;56.390;-3.266;2023-10-13T07:20:26;5.18;;;1.10;;
23280;SDS011;11809;56.390;-3.266;2023-10-13T07:23:11;2.30;;;0.85;;
23280;SDS011;11809;56.390;-3.266;2023-10-13T07:25:51;3.50;;;0.77;;
23280;SDS011;11809;56.390;-3.266;2023-10-13T07:28:29;3.45;;;0.70;;
23280;SDS011;11809;56.390;-3.266;2023-10-13T07:31:05;1.98;;;0.80;;
23280;SDS011;11809;56.390;-3.266;2023-10-13T07:33:41;3.70;;;0.95;;
23280;SDS011;11809;56.390;-3.266;2023-10-13T07:36:12;4.00;;;0.80;;
23280;SDS011;11809;56.390;-3.266;2023-10-13T07:38:54;1.75;;;0.60;;
23280;SDS011;11809;56.390;-3.266;2023-10-13T07:41:49;2.88;;;0.70;;
23280;SDS011;11809;56.390;-3.266;2023-10-13T07:44:22;1.60;;;0.50;;
23280;SDS011;11809;56.390;-3.266;2023-10-13T07:47:01;1.98;;;0.57;;
23280;SDS011;11809;56.390;-3.266;2023-10-13T07:49:35;1.48;;;0.75;;
23280;SDS011;11809;56.390;-3.266;2023-10-13T07:52:07;3.42;;;0.73;;
23280;SDS011;11809;56.390;-3.266;2023-10-13T07:55:03;2.38;;;0.70;;
23280;SDS011;11809;56.390;-3.266;2023-10-13T07:57:47;2.55;;;0.73;;
23280;SDS011;11809;56.390;-3.266;2023-10-13T08:00:26;2.58;;;1.00;;
23280;SDS011;11809;56.390;-3.266;2023-10-13T08:03:16;2.60;;;0.70;;
23280;SDS011;11809;56.390;-3.266;2023-10-13T08:06:02;3.33;;;0.60;;
23280;SDS011;11809;56.390;-3.266;2023-10-13T08:08:47;1.58;;;0.65;;
23280;SDS011;11809;56.390;-3.266;2023-10-13T08:11:24;2.55;;;0.60;;
23280;SDS011;11809;56.390;-3.266;2023-10-13T08:13:59;1.95;;;0.98;;
23280;SDS011;11809;56.390;-3.266;2023-10-13T08:16:57;1.55;;;0.60;;
23280;SDS011;11809;56.390;-3.266;2023-10-13T08:19:36;1.30;;;0.50;;
23280;SDS011;11809;56.390;-3.266;2023-10-13T08:22:13;1.15;;;0.60;;
23280;SDS011;11809;56.390;-3.266;2023-10-13T08:25:03;0.93;;;0.50;;
23280;SDS011;11809;56.390;-3.266;2023-10-13T08:27:47;5.07;;;1.00;;
23280;SDS011;11809;56.390;-3.266;2023-10-13T08:30:34;2.15;;;0.45;;
23280;SDS011;11809;56.390;-3.266;2023-10-13T08:33:19;5.65;;;0.70;;
23280;SDS011;11809;56.390;-3.266;2023-10-13T08:35:56;1.90;;;0.60;;
23280;SDS011;11809;56.390;-3.266;2023-10-13T08:38:54;2.38;;;0.73;;
23280;SDS011;11809;56.390;-3.266;2023-10-13T08:41:42;2.50;;;0.60;;
23280;SDS011;11809;56.390;-3.266;2023-10-13T08:44:25;1.48;;;0.65;;
23280;SDS011;11809;56.390;-3.266;2023-10-13T08:47:05;1.92;;;0.50;;
23280;SDS011;11809;56.390;-3.266;2023-10-13T08:49:43;0.70;;;0.40;;
23280;SDS011;11809;56.390;-3.266;2023-10-13T08:52:22;0.50;;;0.40;;
23280;SDS011;11809;56.390;-3.266;2023-10-13T08:55:13;1.30;;;0.50;;
23280;SDS011;11809;56.390;-3.266;2023-10-13T08:58:00;0.95;;;0.50;;
23280;SDS011;11809;56.390;-3.266;2023-10-13T09:00:41;0.95;;;0.50;;
23280;SDS011;11809;56.390;-3.266;2023-10-13T09:03:39;1.52;;;0.50;;
23280;SDS011;11809;56.390;-3.266;2023-10-13T09:06:16;1.50;;;0.40;;
23280;SDS011;11809;56.390;-3.266;2023-10-13T09:08:49;0.80;;;0.45;;
23280;SDS011;11809;56.390;-3.266;2023-10-13T09:11:34;22.15;;;1.70;;
23280;SDS011;11809;56.390;-3.266;2023-10-13T09:14:16;4.40;;;0.80;;
23280;SDS011;11809;56.390;-3.266;2023-10-13T09:17:05;4.25;;;0.50;;
23280;SDS011;11809;56.390;-3.266;2023-10-13T09:20:01;2.03;;;0.60;;
23280;SDS011;11809;56.390;-3.266;2023-10-13T09:22:45;0.90;;;0.45;;
23280;SDS011;11809;56.390;-3.266;2023-10-13T09:25:26;5.35;;;0.75;;
23280;SDS011;11809;56.390;-3.266;2023-10-13T09:28:00;3.42;;;0.52;;
23280;SDS011;11809;56.390;-3.266;2023-10-13T09:30:42;4.30;;;0.43;;
23280;SDS011;11809;56.390;-3.266;2023-10-13T09:33:11;5.57;;;0.65;;
23280;SDS011;11809;56.390;-3.266;2023-10-13T09:35:47;2.20;;;0.40;;
23280;SDS011;11809;56.390;-3.266;2023-10-13T09:38:16;1.23;;;0.50;;
23280;SDS011;11809;56.390;-3.266;2023-10-13T09:40:50;3.17;;;0.60;;
23280;SDS011;11809;56.390;-3.266;2023-10-13T09:43:20;4.32;;;0.63;;
23280;SDS011;11809;56.390;-3.266;2023-10-13T09:45:55;0.90;;;0.40;;
23280;SDS011;11809;56.390;-3.266;2023-10-13T09:48:33;3.42;;;0.88;;
23280;SDS011;11809;56.390;-3.266;2023-10-13T09:51:10;3.55;;;0.80;;
23280;SDS011;11809;56.390;-3.266;2023-10-13T09:53:52;3.17;;;0.70;;
23280;SDS011;11809;56.390;-3.266;2023-10-13T09:59:24;2.13;;;0.70;;
23280;SDS011;11809;56.390;-3.266;2023-10-13T10:02:01;1.55;;;0.70;;
23280;SDS011;11809;56.390;-3.266;2023-10-13T10:04:50;1.60;;;0.60;;
23280;SDS011;11809;56.390;-3.266;2023-10-13T10:07:25;1.38;;;0.75;;
23280;SDS011;11809;56.390;-3.266;2023-10-13T10:09:56;2.75;;;0.70;;
23280;SDS011;11809;56.390;-3.266;2023-10-13T10:12:32;1.75;;;0.60;;
23280;SDS011;11809;56.390;-3.266;2023-10-13T10:15:20;1.65;;;0.88;;
23280;SDS011;11809;56.390;-3.266;2023-10-13T10:18:01;2.25;;;0.70;;
23280;SDS011;11809;56.390;-3.266;2023-10-13T10:20:34;2.53;;;0.90;;
23280;SDS011;11809;56.390;-3.266;2023-10-13T10:23:21;2.85;;;0.90;;
23280;SDS011;11809;56.390;-3.266;2023-10-13T10:25:55;3.90;;;0.70;;
23280;SDS011;11809;56.390;-3.266;2023-10-13T10:28:38;2.90;;;0.95;;
23280;SDS011;11809;56.390;-3.266;2023-10-13T10:31:11;1.85;;;0.70;;
23280;SDS011;11809;56.390;-3.266;2023-10-13T10:33:44;2.92;;;0.80;;
23280;SDS011;11809;56.390;-3.266;2023-10-13T10:36:22;2.50;;;1.00;;
23280;SDS011;11809;56.390;-3.266;2023-10-13T10:38:58;3.55;;;1.00;;
23280;SDS011;11809;56.390;-3.266;2023-10-13T10:41:31;2.85;;;0.80;;
23280;SDS011;11809;56.390;-3.266;2023-10-13T10:44:15;2.37;;;0.93;;
23280;SDS011;11809;56.390;-3.266;2023-10-13T10:46:50;2.97;;;1.10;;
23280;SDS011;11809;56.390;-3.266;2023-10-13T10:49:28;2.35;;;1.00;;
23280;SDS011;11809;56.390;-3.266;2023-10-13T10:51:59;2.50;;;1.00;;
23280;SDS011;11809;56.390;-3.266;2023-10-13T10:54:31;1.60;;;0.80;;
23280;SDS011;11809;56.390;-3.266;2023-10-13T10:57:01;2.63;;;1.08;;
23280;SDS011;11809;56.390;-3.266;2023-10-13T10:59:47;2.28;;;1.00;;
23280;SDS011;11809;56.390;-3.266;2023-10-13T11:02:36;2.05;;;0.82;;
23280;SDS011;11809;56.390;-3.266;2023-10-13T11:05:07;3.60;;;1.05;;
23280;SDS011;11809;56.390;-3.266;2023-10-13T11:07:45;2.90;;;1.08;;
23280;SDS011;11809;56.390;-3.266;2023-10-13T11:10:18;3.22;;;1.02;;
23280;SDS011;11809;56.390;-3.266;2023-10-13T11:12:55;2.30;;;0.98;;
23280;SDS011;11809;56.390;-3.266;2023-10-13T11:15:44;2.67;;;1.00;;
23280;SDS011;11809;56.390;-3.266;2023-10-13T11:18:15;2.30;;;0.90;;
23280;SDS011;11809;56.390;-3.266;2023-10-13T11:20:48;2.72;;;1.20;;
23280;SDS011;11809;56.390;-3.266;2023-10-13T11:23:21;2.00;;;0.77;;
23280;SDS011;11809;56.390;-3.266;2023-10-13T11:25:56;2.42;;;0.95;;
23280;SDS011;11809;56.390;-3.266;2023-10-13T11:28:27;2.13;;;0.82;;
23280;SDS011;11809;56.390;-3.266;2023-10-13T11:31:01;3.50;;;1.20;;
23280;SDS011;11809;56.390;-3.266;2023-10-13T11:33:43;1.80;;;0.80;;
23280;SDS011;11809;56.390;-3.266;2023-10-13T11:36:17;2.03;;;0.90;;
23280;SDS011;11809;56.390;-3.266;2023-10-13T11:38:50;1.80;;;0.88;;
23280;SDS011;11809;56.390;-3.266;2023-10-13T11:41:25;1.65;;;0.60;;
23280;SDS011;11809;56.390;-3.266;2023-10-13T11:44:00;1.55;;;0.55;;
23280;SDS011;11809;56.390;-3.266;2023-10-13T11:46:53;2.55;;;0.80;;
23280;SDS011;11809;56.390;-3.266;2023-10-13T11:49:35;2.97;;;0.70;;
23280;SDS011;11809;56.390;-3.266;2023-10-13T11:52:07;1.73;;;0.70;;
23280;SDS011;11809;56.390;-3.266;2023-10-13T11:54:46;2.10;;;0.80;;
23280;SDS011;11809;56.390;-3.266;2023-10-13T12:02:50;2.63;;;0.77;;
23280;SDS011;11809;56.390;-3.266;2023-10-13T12:05:33;2.97;;;0.82;;
23280;SDS011;11809;56.390;-3.266;2023-10-13T12:08:16;2.03;;;0.85;;
23280;SDS011;11809;56.390;-3.266;2023-10-13T12:10:59;1.65;;;0.60;;
23280;SDS011;11809;56.390;-3.266;2023-10-13T12:13:50;2.38;;;0.52;;
23280;SDS011;11809;56.390;-3.266;2023-10-13T12:16:21;0.82;;;0.63;;
23280;SDS011;11809;56.390;-3.266;2023-10-13T12:19:04;2.10;;;0.60;;
23280;SDS011;11809;56.390;-3.266;2023-10-13T12:21:38;4.85;;;0.80;;
23280;SDS011;11809;56.390;-3.266;2023-10-13T12:24:10;16.35;;;1.75;;
23280;SDS011;11809;56.390;-3.266;2023-10-13T12:26:52;3.60;;;0.80;;
23280;SDS011;11809;56.390;-3.266;2023-10-13T12:29:25;4.55;;;0.82;;
23280;SDS011;11809;56.390;-3.266;2023-10-13T12:32:02;3.45;;;0.80;;
23280;SDS011;11809;56.390;-3.266;2023-10-13T12:34:39;3.67;;;1.05;;
23280;SDS011;11809;56.390;-3.266;2023-10-13T12:37:27;1.98;;;0.77;;
23280;SDS011;11809;56.390;-3.266;2023-10-13T12:40:17;1.23;;;0.75;;
23280;SDS011;11809;56.390;-3.266;2023-10-13T12:43:01;2.60;;;0.80;;
23280;SDS011;11809;56.390;-3.266;2023-10-13T12:45:45;3.65;;;1.20;;
23280;SDS011;11809;56.390;-3.266;2023-10-13T12:48:29;4.13;;;0.70;;
23280;SDS011;11809;56.390;-3.266;2023-10-13T12:51:15;1.50;;;0.70;;
23280;SDS011;11809;56.390;-3.266;2023-10-13T12:54:07;6.82;;;0.88;;
23280;SDS011;11809;56.390;-3.266;2023-10-13T12:56:47;2.47;;;0.80;;
23280;SDS011;11809;56.390;-3.266;2023-10-13T12:59:23;5.82;;;0.80;;
23280;SDS011;11809;56.390;-3.266;2023-10-13T13:01:56;2.28;;;0.80;;
23280;SDS011;11809;56.390;-3.266;2023-10-13T13:04:27;3.45;;;0.80;;
23280;SDS011;11809;56.390;-3.266;2023-10-13T13:07:06;5.05;;;0.85;;
23280;SDS011;11809;56.390;-3.266;2023-10-13T13:09:40;1.45;;;0.45;;
23280;SDS011;11809;56.390;-3.266;2023-10-13T13:12:11;2.70;;;0.73;;
23280;SDS011;11809;56.390;-3.266;2023-10-13T13:14:42;3.10;;;0.70;;
23280;SDS011;11809;56.390;-3.266;2023-10-13T13:17:13;1.63;;;0.90;;
23280;SDS011;11809;56.390;-3.266;2023-10-13T13:19:44;4.78;;;0.68;;
23280;SDS011;11809;56.390;-3.266;2023-10-13T13:22:17;3.22;;;0.88;;
23280;SDS011;11809;56.390;-3.266;2023-10-13T13:24:48;2.00;;;0.60;;
23280;SDS011;11809;56.390;-3.266;2023-10-13T13:27:19;4.03;;;0.75;;
23280;SDS011;11809;56.390;-3.266;2023-10-13T13:29:51;2.05;;;0.68;;
23280;SDS011;11809;56.390;-3.266;2023-10-13T13:32:23;3.13;;;0.70;;
23280;SDS011;11809;56.390;-3.266;2023-10-13T13:34:55;2.15;;;0.60;;
23280;SDS011;11809;56.390;-3.266;2023-10-13T13:37:34;9.20;;;1.13;;
23280;SDS011;11809;56.390;-3.266;2023-10-13T13:40:08;1.48;;;0.52;;
23280;SDS011;11809;56.390;-3.266;2023-10-13T13:42:49;2.20;;;0.80;;
23280;SDS011;11809;56.390;-3.266;2023-10-13T13:45:19;2.60;;;0.60;;
23280;SDS011;11809;56.390;-3.266;2023-10-13T13:47:59;3.22;;;0.70;;
23280;SDS011;11809;56.390;-3.266;2023-10-13T13:50:37;5.07;;;1.08;;
23280;SDS011;11809;56.390;-3.266;2023-10-13T13:53:11;18.23;;;1.98;;
23280;SDS011;11809;56.390;-3.266;2023-10-13T13:55:42;11.10;;;1.58;;
23280;SDS011;11809;56.390;-3.266;2023-10-13T13:58:13;1.75;;;0.63;;
23280;SDS011;11809;56.390;-3.266;2023-10-13T14:00:43;1.30;;;0.65;;
23280;SDS011;11809;56.390;-3.266;2023-10-13T14:03:16;1.73;;;0.50;;
23280;SDS011;11809;56.390;-3.266;2023-10-13T14:05:58;27.90;;;2.42;;
23280;SDS011;11809;56.390;-3.266;2023-10-13T14:08:33;4.32;;;0.60;;
23280;SDS011;11809;56.390;-3.266;2023-10-13T14:11:04;13.48;;;0.90;;
23280;SDS011;11809;56.390;-3.266;2023-10-13T14:13:49;45.00;;;2.50;;
23280;SDS011;11809;56.390;-3.266;2023-10-13T14:16:20;7.40;;;0.65;;
23280;SDS011;11809;56.390;-3.266;2023-10-13T14:18:51;3.42;;;0.60;;
23280;SDS011;11809;56.390;-3.266;2023-10-13T14:21:22;8.25;;;0.80;;
23280;SDS011;11809;56.390;-3.266;2023-10-13T14:23:57;21.30;;;1.40;;
23280;SDS011;11809;56.390;-3.266;2023-10-13T14:26:28;21.67;;;1.42;;
23280;SDS011;11809;56.390;-3.266;2023-10-13T14:29:00;14.60;;;1.25;;
23280;SDS011;11809;56.390;-3.266;2023-10-13T14:31:35;3.67;;;0.77;;
23280;SDS011;11809;56.390;-3.266;2023-10-13T14:34:06;2.47;;;0.55;;
23280;SDS011;11809;56.390;-3.266;2023-10-13T14:36:38;3.80;;;0.45;;
23280;SDS011;11809;56.390;-3.266;2023-10-13T14:39:17;3.45;;;0.70;;
23280;SDS011;11809;56.390;-3.266;2023-10-13T14:41:48;21.85;;;1.65;;
23280;SDS011;11809;56.390;-3.266;2023-10-13T14:44:19;4.95;;;0.60;;
23280;SDS011;11809;56.390;-3.266;2023-10-13T14:46:53;20.10;;;1.55;;
23280;SDS011;11809;56.390;-3.266;2023-10-13T14:49:24;5.57;;;0.50;;
23280;SDS011;11809;56.390;-3.266;2023-10-13T14:51:55;4.03;;;0.90;;
23280;SDS011;11809;56.390;-3.266;2023-10-13T14:57:02;4.18;;;0.50;;
23280;SDS011;11809;56.390;-3.266;2023-10-13T15:02:05;7.13;;;0.40;;
23280;SDS011;11809;56.390;-3.266;2023-10-13T15:04:36;12.15;;;1.05;;
23280;SDS011;11809;56.390;-3.266;2023-10-13T15:07:07;5.20;;;0.73;;
23280;SDS011;11809;56.390;-3.266;2023-10-13T15:09:40;13.07;;;0.88;;
23280;SDS011;11809;56.390;-3.266;2023-10-13T15:12:11;6.28;;;0.60;;
23280;SDS011;11809;56.390;-3.266;2023-10-13T15:14:49;8.95;;;0.65;;
23280;SDS011;11809;56.390;-3.266;2023-10-13T15:17:20;11.77;;;0.77;;
23280;SDS011;11809;56.390;-3.266;2023-10-13T15:19:51;3.92;;;1.05;;
23280;SDS011;11809;56.390;-3.266;2023-10-13T15:22:22;8.07;;;0.90;;
23280;SDS011;11809;56.390;-3.266;2023-10-13T15:24:57;4.30;;;0.60;;
23280;SDS011;11809;56.390;-3.266;2023-10-13T15:27:36;2.67;;;0.73;;
23280;SDS011;11809;56.390;-3.266;2023-10-13T15:30:12;12.48;;;1.35;;
23280;SDS011;11809;56.390;-3.266;2023-10-13T15:32:50;14.70;;;1.23;;
23280;SDS011;11809;56.390;-3.266;2023-10-13T15:35:24;5.22;;;1.00;;
23280;SDS011;11809;56.390;-3.266;2023-10-13T15:37:56;5.82;;;1.05;;
23280;SDS011;11809;56.390;-3.266;2023-10-13T15:40:30;19.90;;;1.85;;
23280;SDS011;11809;56.390;-3.266;2023-10-13T15:43:01;28.60;;;2.42;;
23280;SDS011;11809;56.390;-3.266;2023-10-13T15:45:32;22.20;;;2.05;;
23280;SDS011;11809;56.390;-3.266;2023-10-13T15:48:06;31.73;;;2.97;;
23280;SDS011;11809;56.390;-3.266;2023-10-13T15:50:40;36.38;;;3.05;;
23280;SDS011;11809;56.390;-3.266;2023-10-13T15:53:11;59.33;;;3.55;;
23280;SDS011;11809;56.390;-3.266;2023-10-13T15:55:45;28.02;;;2.42;;